• 1
  • 2
  • 1

WebCam

  
Kamera Halle
Kamera Vorfeld

GPS Triangle WM Sports Class

AeroClub Göppingen-Salach e.V.
Ausrichter der Modellflug
GPS Triangle-WM 2020

Wetter EDDS

METAR

EDDS 122150Z 10004KT 070V160 CAVOK M01/M03 Q0994 =
EDDS 121700Z 1218/1318 18005KT 9999 FEW015 BKN040 BECMG 1218/1220 12004KT TEMPO 1302/1309 4000 SNRA BKN010 PROB30 TEMPO 1302/1308 1200 SN BKN005 BECMG 1308/1311 20009KT TEMPO 1309/1311 RA BKN010 PROB30 TEMPO 1311/1318 25015G25KT 3000 SHRASN BKN014TCU


TAF

EDDS 121700Z 1218/1318 18005KT 9999 FEW015 BKN040 BECMG 1218/1220 12004KT TEMPO 1302/1309 4000 SNRA BKN010 PROB30 TEMPO 1302/1308 1200 SN BKN005 BECMG 1308/1311 20009KT TEMPO 1309/1311 RA BKN010 PROB30 TEMPO 1311/1318 25015G25KT 3000 SHRASN BKN014TCU =


SR/SS

07:04 / 15:25 UTC
(EDSO 12-12-2019)